Bear Valley Ski Patrol Weather




            Date and Time  Surv  Temp  Temp  Surv  Precip   Total Inter Total  Batt Koala Koala Koala Koala Koala Koala Bear T Bear T  Bear  Bear  Bear
                           Temp 24 hr 24 hr    RH    Inch   24 hr  Snow  Snow  volt  Temp    RH    WS    WD    WS    WS   Temp     RH    WS    WD    WS
                          Deg F   Min   Max     %    Hour  Precip Stake Stake  Surv Deg F     %   mph  quad   Max 24Max  Deg F      %   mph  quad   Max
-------------------------------------------------------------------------------------------------------------------------------------------------------
    "2023-01-25 08:00:00"    28                56    0.00         "NAN"   143  13.8    29   100    27    NE    44           32     54    34   NNE    44
    "2023-01-25 09:00:00"    28                55    0.00         "NAN"   143  13.9    29   100    26    NE    41           50     98    34   NNE    44
    "2023-01-25 10:00:00"    29                53    0.00         "NAN"   143  13.8    29   100    24    NE    43           39     76    35   NNE    44
    "2023-01-25 11:00:00"    30                53    0.00         "NAN"   143  13.8    29   100    23    NE    42           29     67    33   NNE    45
    "2023-01-25 12:00:00"    32                46    0.00         "NAN"   143  13.7    28   100    23    NE    45           32     37    37   NNE    47
    "2023-01-25 13:00:00"    33                45    0.00         "NAN"   143  13.7    29   100    20    NE    44           43     17    30   NNE    46
    "2023-01-25 14:00:00"    33                43    0.00         "NAN"   143  13.8    29   100    22    NE    41           40     48    33   NNE    47
    "2023-01-25 15:00:00"    31                46    0.00         "NAN"   143  13.6    29   100    23    NE    41        "NAN"     86    36    NE    50
    "2023-01-25 16:00:00"    31                45    0.00         "NAN"   143  13.6    29   100    21    NE    37        "NAN"    202    32    NE    49
    "2023-01-25 17:00:00"    30                48    0.00         "NAN"   143  13.8    29   100    24    NE    45        "NAN"     51    36    NE    54
    "2023-01-25 18:00:00"    28                53    0.00         "NAN"   142  13.8    29   100    26    NE    51           34     58    38    NE    55
    "2023-01-25 19:00:00"    30                44    0.00         "NAN"   142  13.8    29   100    29    NE    54           30     46    41    NE    58
    "2023-01-25 20:00:00"    30                44    0.00         "NAN"   142  13.8    29   100    27    NE    53           29     48    39    NE    57
    "2023-01-25 21:00:00"    27                54    0.00         "NAN"   142  13.8    29   100    20    NE    43           28     69    33    NE    51
    "2023-01-25 22:00:00"    25                62    0.00         "NAN"   142  13.8    29   100    26    NE    47           30     61    39    NE    54
    "2023-01-25 23:00:00"    31                39    0.00         "NAN"   142  13.8    29   100    30    NE    53        "NAN"     40    38    NE    57
    "2023-01-26 00:00:00"    30                42    0.00         "NAN"   142  13.8    29   100    32    NE    58           91    242    37    NE    52
    "2023-01-26 01:00:00"    29                44    0.00         "NAN"   142  13.8    29   100    33    NE    50           61     56    36    NE    49
    "2023-01-26 02:00:00"    28                52    0.00         "NAN"   142  13.8    29   100    33    NE    52            6     23    33    NE    50
    "2023-01-26 03:00:00"    27                52    0.00         "NAN"   141  13.9    29   100    34    NE    53           -4     21    33    NE    48
    "2023-01-26 04:00:00"    24                61    0.00         "NAN"   141  13.9    29   100    28    NE    47           -5     20    22    NE    37
    "2023-01-26 05:00:00"    25                56    0.00         "NAN"   141  13.9    29   100    26    NE    46           -7     20    25    NE    40
    "2023-01-26 06:00:00"    22                73    0.00         "NAN"   141  13.9    29   100    19    NE    35          -11     17    20    NE    37
    "2023-01-26 07:00:00"    22    22    33    65    0.00    0.00 "NAN"   141  13.9    29   100    17    NE    32    58  "NAN"    155    17    NE    30
    "2023-01-26 08:00:00"    28                43    0.00         "NAN"   141  13.9    29   100    19   ENE    31        "NAN"     30    25    NE    36
    "2023-01-26 09:00:00"    33                27    0.00         "NAN"   141  13.9    29   100    22   ENE    34        "NAN"    107    27   ENE    39
    "2023-01-26 10:00:00"    35                25    0.00         "NAN"   141  13.9    29   100    25   ENE    40           56     95    19    NE    34
    "2023-01-26 11:00:00"    39                21    0.00         "NAN"   141  13.8    29   100    16   ENE    36           53     68    17    NE    34
    "2023-01-26 12:00:00"    42                20    0.00         "NAN"   141  13.8    29   100     8     N    28           86     88    10    NE    28
    "2023-01-26 13:00:00"    44                27    0.00         "NAN"   140  13.6    29   100     8   NNW    21           94     10     4    NW    13
    "2023-01-26 14:00:00"    42                28    0.00         "NAN"   141  13.5    29   100     9   NNW    17           56     57     9   NNW    18
    "2023-01-26 15:00:00"    42                15    0.00         "NAN"   141  13.5    29   100    11   NNE    24           96      9     7   NNE    16
    "2023-01-26 16:00:00"    39                20    0.00         "NAN"   141  13.4    29   100    14   NNE    27           73     32    10   NNE    26
    "2023-01-26 17:00:00"    39                10    0.00         "NAN"   141  13.5    29   100    15   NNE    33           16     21    12   NNE    24
    "2023-01-26 18:00:00"    35                19    0.00         "NAN"   141  13.5    29   100    13   NNE    26          -14     19    11     N    20
    "2023-01-26 19:00:00"    34                19    0.00         "NAN"   141  13.6    29   100     9     N    21          -18     18     9     N    15
    "2023-01-26 20:00:00"    35                18    0.00         "NAN"   141  13.6    29   100     6   NNW    14          -21     17     5     N    13
    "2023-01-26 21:00:00"    36                19    0.00         "NAN"   141  13.7    29   100     6   NNW    12          -22     17     7     N    14
    "2023-01-26 22:00:00"    37                12    0.00         "NAN"   141  13.8    30   100    11   NNW    19          -23     16    12     N    16
    "2023-01-26 23:00:00"    34                21    0.00         "NAN"   140  13.8    29   100    12   NNW    18          -23     15    11     N    16
    "2023-01-27 00:00:00"    33                23    0.00         "NAN"   140  13.8    29   100    12    NW    18          -23     15    10   NNW    13
    "2023-01-27 01:00:00"    32                16    0.00         "NAN"   141  13.7    29   100    12   NNW    19          -25     14     9     N    14
    "2023-01-27 02:00:00"    32                21    0.00         "NAN"   140  13.8    29   100    12   NNW    17          -25     14     8   NNW    17
    "2023-01-27 03:00:00"    32                20    0.00         "NAN"   140  13.8    29   100     5   NNW    13          -26     14     6     N    11
    "2023-01-27 04:00:00"    32                25    0.00         "NAN"   140  13.8    29   100     9    NW    17          -26     14    10   NNW    19
    "2023-01-27 05:00:00"    31                27    0.00         "NAN"   140  13.8    29   100     8    NW    15          -26     14    10   NNW    17
    "2023-01-27 06:00:00"    31                27    0.00         "NAN"   140  13.8    29   100     8    NW    15          -27     14     8   NNW    17
    "2023-01-27 07:00:00"    31    28    44    31    0.00    0.00 "NAN"   140  13.8    29   100     8    NW    15    40    -27     14     7    NW    16
    "2023-01-27 08:00:00"    31                29    0.00         "NAN"   140  13.8    30   100     9    NW    15           54     94     5   WNW    12
    "2023-01-27 09:00:00"    36                19    0.00         "NAN"   140  13.8    30   100     9    NW    15        "NAN"    109     6   NNW    11
    "2023-01-27 10:00:00"    39                22    0.00         "NAN"   140  13.8    30   100     9    NW    13        "NAN"    166     6   NNW     9
    "2023-01-27 11:00:00"    41                25    0.00         "NAN"   226  13.8    30   100     8    NW    13        "NAN"    100     4   NNW    11
    "2023-01-27 12:00:00"    42                21    0.00         "NAN"   139  13.6    29   100    10    NW    18        "NAN"      7     5   NNW    15
    "2023-01-27 13:00:00"    43                22    0.00         "NAN"   139  13.6    29   100    11    NW    21           69     98     4   NNW    13
    "2023-01-27 14:00:00"    39                34    0.00         "NAN"   139  13.5    29   100     8    NW    17           53     79     3    NW    10
    "2023-01-27 15:00:00"    38                37    0.00         "NAN"   140  13.5    29   100     9    NW    18           47     42     3    NW    12
    "2023-01-27 16:00:00"    34                48    0.00         "NAN"   139  13.5    30   100     9   WNW    19           41     72     3    NW    10
    "2023-01-27 17:00:00"    34                33    0.00         "NAN"   139  13.5    29   100    12   WNW    24           22     40     5   WNW    16
    "2023-01-27 18:00:00"    30                56    0.00         "NAN"   139  13.6    28   100    10    NW    24           31     48     4    NW    17
    "2023-01-27 19:00:00"    27                49    0.00         "NAN"   139  13.6    27   100     8    NW    16           29     49     3   NNW    11
    "2023-01-27 20:00:00"    26                56    0.00         "NAN"   139  13.8    26   100    10   NNW    25           28     55     8   NNW    15